Time;durP1;ratioP1;P1;durP2;ratioP2;P2;SDS_P1;SDS_P2;PMS_P1;PMS_P2;Temp;Humidity;BMP_temperature;BMP_pressure;BME280_temperature;BME280_humidity;BME280_pressure;Samples;Min_cycle;Max_cycle;Signal;HPM_P1;HPM_P2
2022/06/21 00:00:42;;;;;;;5.70;2.83;;;;;;;;;;6192572;22;20344;-65
2022/06/21 00:03:10;;;;;;;6.45;2.45;;;;;;;;;;6198251;23;20131;-64
2022/06/21 00:05:39;;;;;;;6.93;2.50;;;;;;;;;;6201910;23;20020;-65
2022/06/21 00:08:11;;;;;;;6.25;2.25;;;;;;;;;;6196978;23;20679;-64
2022/06/21 00:10:37;;;;;;;6.43;2.10;;;;;;;;;;6203908;23;20027;-64
2022/06/21 00:13:10;;;;;;;8.20;2.65;;;;;;;;;;6191235;22;20061;-64
2022/06/21 00:15:36;;;;;;;11.55;2.40;;;;;;;;;;6198250;23;20736;-65
2022/06/21 00:18:03;;;;;;;9.23;2.30;;;;;;;;;;6195844;23;20051;-64
2022/06/21 00:20:29;;;;;;;9.48;2.60;;;;;;;;;;6203173;23;20026;-65
2022/06/21 00:22:56;;;;;;;6.63;2.22;;;;;;;;;;6204435;23;20096;-65
2022/06/21 00:25:24;;;;;;;7.15;2.55;;;;;;;;;;6193343;23;20124;-65
2022/06/21 00:27:51;;;;;;;6.78;2.45;;;;;;;;;;6197250;23;20451;-65
2022/06/21 00:30:18;;;;;;;6.50;2.50;;;;;;;;;;6186668;23;20432;-65
2022/06/21 00:32:45;;;;;;;5.65;2.08;;;;;;;;;;6203496;23;20052;-65
2022/06/21 00:35:14;;;;;;;3.47;2.00;;;;;;;;;;6193676;23;20039;-65
2022/06/21 00:37:41;;;;;;;8.05;2.40;;;;;;;;;;6202595;23;20044;-65
2022/06/21 00:40:18;;;;;;;10.93;2.03;;;;;;;;;;6203049;23;20048;-65
2022/06/21 00:42:45;;;;;;;6.93;2.30;;;;;;;;;;6185277;23;20259;-65
2022/06/21 00:45:15;;;;;;;5.22;2.17;;;;;;;;;;6201515;23;20036;-65
2022/06/21 00:47:44;;;;;;;6.38;2.30;;;;;;;;;;6192952;23;20111;-65
2022/06/21 00:50:10;;;;;;;8.02;2.97;;;;;;;;;;6203430;23;20104;-64
2022/06/21 00:52:42;;;;;;;3.45;2.20;;;;;;;;;;6194716;22;20025;-65
2022/06/21 00:55:13;;;;;;;4.22;1.90;;;;;;;;;;6196760;23;20210;-65
2022/06/21 00:57:43;;;;;;;8.43;2.35;;;;;;;;;;6197718;23;20521;-66
2022/06/21 01:00:23;;;;;;;5.63;2.20;;;;;;;;;;6193385;23;20500;-65
2022/06/21 01:02:49;;;;;;;9.63;2.70;;;;;;;;;;6203710;23;20036;-65
2022/06/21 01:05:16;;;;;;;7.30;2.42;;;;;;;;;;6193239;23;20027;-64
2022/06/21 01:07:42;;;;;;;5.40;2.15;;;;;;;;;;6202948;23;20035;-65
2022/06/21 01:10:10;;;;;;;5.03;2.15;;;;;;;;;;6185580;23;20027;-65
2022/06/21 01:12:44;;;;;;;8.07;2.50;;;;;;;;;;6196933;23;20099;-65
2022/06/21 01:15:20;;;;;;;6.35;2.10;;;;;;;;;;6203158;23;20111;-65
2022/06/21 01:17:47;;;;;;;6.20;2.28;;;;;;;;;;6193265;23;20031;-65
2022/06/21 01:20:22;;;;;;;6.00;2.45;;;;;;;;;;6203193;23;20473;-65
2022/06/21 01:22:54;;;;;;;6.72;2.47;;;;;;;;;;6192467;23;20024;-65
2022/06/21 01:25:27;;;;;;;5.72;2.25;;;;;;;;;;6197905;23;20020;-66
2022/06/21 01:27:56;;;;;;;7.53;2.95;;;;;;;;;;6197209;23;20021;-65
2022/06/21 01:30:23;;;;;;;8.13;2.53;;;;;;;;;;6202179;23;20131;-65
2022/06/21 01:32:49;;;;;;;6.95;2.28;;;;;;;;;;6203283;23;20056;-64
2022/06/21 01:35:25;;;;;;;5.47;2.28;;;;;;;;;;6191679;23;20099;-64
2022/06/21 01:37:52;;;;;;;6.10;2.40;;;;;;;;;;6196489;23;20047;-65
2022/06/21 01:40:29;;;;;;;4.68;2.10;;;;;;;;;;6185557;23;20044;-65
2022/06/21 01:43:00;;;;;;;9.57;2.63;;;;;;;;;;6203438;23;20024;-65
2022/06/21 01:45:31;;;;;;;7.18;2.30;;;;;;;;;;6191849;23;20029;-65
2022/06/21 01:48:02;;;;;;;6.30;2.33;;;;;;;;;;6203178;23;20533;-64
2022/06/21 01:50:29;;;;;;;5.93;2.70;;;;;;;;;;6200065;23;20455;-64
2022/06/21 01:52:56;;;;;;;5.60;2.30;;;;;;;;;;6184213;23;20024;-65
2022/06/21 01:55:32;;;;;;;5.60;2.60;;;;;;;;;;6202497;23;20034;-64
2022/06/21 01:58:00;;;;;;;5.75;2.40;;;;;;;;;;6193054;23;20140;-63
2022/06/21 02:00:27;;;;;;;5.45;2.50;;;;;;;;;;6201560;23;20027;-64
2022/06/21 02:02:55;;;;;;;5.55;2.58;;;;;;;;;;6192328;23;20021;-64
2022/06/21 02:05:25;;;;;;;8.13;3.08;;;;;;;;;;6196891;23;20059;-64
2022/06/21 02:07:53;;;;;;;5.43;2.53;;;;;;;;;;6196960;23;20128;-64
2022/06/21 02:10:19;;;;;;;;;;;;;;;;;;6194451;23;20025;-64
2022/06/21 02:12:51;;;;;;;6.68;2.60;;;;;;;;;;6204227;23;20006;-64
2022/06/21 02:15:30;;;;;;;7.47;2.70;;;;;;;;;;6194350;23;20110;-65
2022/06/21 02:17:58;;;;;;;5.60;2.30;;;;;;;;;;6204243;23;20323;-64
2022/06/21 02:20:33;;;;;;;4.90;2.08;;;;;;;;;;6187380;22;20017;-65
2022/06/21 02:22:59;;;;;;;9.75;2.72;;;;;;;;;;6199536;23;20021;-65
2022/06/21 02:25:26;;;;;;;6.72;2.97;;;;;;;;;;6199357;23;20239;-65
2022/06/21 02:27:58;;;;;;;6.25;2.80;;;;;;;;;;6197371;23;20021;-65
2022/06/21 02:30:25;;;;;;;5.63;2.47;;;;;;;;;;6201682;23;20369;-64
2022/06/21 02:32:55;;;;;;;4.95;2.72;;;;;;;;;;6188058;23;20063;-64
2022/06/21 02:35:45;;;;;;;7.15;3.30;;;;;;;;;;6197412;23;20099;-64
2022/06/21 02:38:14;;;;;;;5.93;2.72;;;;;;;;;;6182556;23;20355;-66
2022/06/21 02:40:47;;;;;;;6.93;2.58;;;;;;;;;;6203251;23;20095;-64
2022/06/21 02:43:21;;;;;;;5.63;2.45;;;;;;;;;;6190935;22;20446;-64
2022/06/21 02:45:51;;;;;;;9.00;2.72;;;;;;;;;;6201339;23;20423;-65
2022/06/21 02:48:19;;;;;;;4.53;2.60;;;;;;;;;;6196281;23;20624;-64
2022/06/21 02:50:48;;;;;;;8.38;2.70;;;;;;;;;;6188236;23;20158;-64
2022/06/21 02:53:20;;;;;;;7.47;2.47;;;;;;;;;;6202200;23;20063;-64
2022/06/21 02:56:07;;;;;;;7.15;2.90;;;;;;;;;;6193468;23;20024;-64
2022/06/21 02:58:39;;;;;;;7.07;2.83;;;;;;;;;;6202523;23;20020;-64
2022/06/21 03:01:11;;;;;;;6.22;2.50;;;;;;;;;;6187528;23;20021;-64
2022/06/21 03:03:37;;;;;;;6.30;2.47;;;;;;;;;;6196503;23;20027;-64
2022/06/21 03:06:07;;;;;;;4.80;2.33;;;;;;;;;;6196033;23;20447;-64
2022/06/21 03:08:33;;;;;;;9.00;3.15;;;;;;;;;;6201521;23;20496;-65
2022/06/21 03:11:00;;;;;;;3.85;2.53;;;;;;;;;;6201861;23;20024;-64
2022/06/21 03:13:34;;;;;;;4.65;2.47;;;;;;;;;;6191552;23;20029;-64
2022/06/21 03:16:06;;;;;;;5.78;2.38;;;;;;;;;;6196690;23;20052;-64
2022/06/21 03:18:36;;;;;;;5.45;2.67;;;;;;;;;;6186297;23;20467;-65
2022/06/21 03:21:03;;;;;;;4.82;2.45;;;;;;;;;;6200917;23;20067;-65
2022/06/21 03:23:29;;;;;;;9.75;2.92;;;;;;;;;;6170083;23;20358;-64
2022/06/21 03:25:57;;;;;;;6.88;2.67;;;;;;;;;;6197315;23;20060;-64
2022/06/21 03:28:33;;;;;;;10.18;3.20;;;;;;;;;;6200087;23;20107;-64
2022/06/21 03:31:04;;;;;;;6.43;2.63;;;;;;;;;;6183015;23;20029;-64
2022/06/21 03:33:32;;;;;;;7.28;2.80;;;;;;;;;;6201199;23;20104;-64
2022/06/21 03:36:00;;;;;;;5.55;2.97;;;;;;;;;;6191075;23;20140;-64
2022/06/21 03:38:26;;;;;;;7.20;3.10;;;;;;;;;;6201626;23;20353;-65
2022/06/21 03:43:42;;;;;;;7.70;3.25;;;;;;;;;;6194643;23;20081;-65
2022/06/21 03:46:12;;;;;;;9.55;3.47;;;;;;;;;;6198536;23;20413;-64
2022/06/21 03:48:48;;;;;;;9.60;3.35;;;;;;;;;;6191428;22;20036;-65
2022/06/21 03:51:16;;;;;;;9.55;3.63;;;;;;;;;;6200869;23;20421;-65
2022/06/21 03:53:51;;;;;;;11.32;4.25;;;;;;;;;;6191734;23;20108;-64
2022/06/21 03:56:23;;;;;;;6.82;3.70;;;;;;;;;;6195322;23;20531;-65
2022/06/21 03:59:08;;;;;;;5.43;3.25;;;;;;;;;;6186587;23;20245;-64
2022/06/21 04:01:38;;;;;;;12.15;4.20;;;;;;;;;;6201109;23;20108;-65
2022/06/21 04:04:08;;;;;;;8.05;3.50;;;;;;;;;;6202398;23;20446;-65
2022/06/21 04:06:45;;;;;;;7.32;3.80;;;;;;;;;;6192599;23;20098;-64
2022/06/21 04:09:11;;;;;;;9.60;4.90;;;;;;;;;;6201789;23;20031;-64
2022/06/21 04:11:43;;;;;;;9.75;4.20;;;;;;;;;;6184700;23;20349;-64
2022/06/21 04:14:09;;;;;;;6.30;3.70;;;;;;;;;;6198579;23;20028;-64
2022/06/21 04:16:36;;;;;;;6.53;3.90;;;;;;;;;;6192677;22;20039;-65
2022/06/21 04:19:07;;;;;;;13.25;4.05;;;;;;;;;;6201920;23;20024;-65
2022/06/21 04:21:39;;;;;;;8.05;3.75;;;;;;;;;;6197126;23;20064;-65
2022/06/21 04:24:25;;;;;;;9.73;3.60;;;;;;;;;;6198278;23;20064;-65
2022/06/21 04:27:01;;;;;;;10.18;3.53;;;;;;;;;;6199981;23;20056;-65
2022/06/21 04:29:31;;;;;;;7.68;3.75;;;;;;;;;;6197034;23;20022;-65
2022/06/21 04:32:14;;;;;;;7.82;3.85;;;;;;;;;;6204954;23;20332;-65
2022/06/21 04:34:49;;;;;;;8.32;3.38;;;;;;;;;;6196313;23;20115;-65
2022/06/21 04:37:24;;;;;;;6.70;3.88;;;;;;;;;;6202682;23;20039;-64
2022/06/21 04:39:55;;;;;;;9.27;4.22;;;;;;;;;;6190395;23;20437;-64
2022/06/21 04:42:34;;;;;;;10.48;4.10;;;;;;;;;;6202626;23;20056;-64
2022/06/21 04:45:00;;;;;;;11.95;4.05;;;;;;;;;;6194384;23;20029;-64
2022/06/21 04:47:30;;;;;;;11.75;4.10;;;;;;;;;;6202641;23;20099;-64
2022/06/21 04:50:18;;;;;;;10.25;3.83;;;;;;;;;;6202022;23;20103;-64
2022/06/21 04:52:50;;;;;;;8.43;3.70;;;;;;;;;;6189638;22;20083;-65
2022/06/21 04:55:17;;;;;;;12.27;3.88;;;;;;;;;;6202485;23;20064;-65
2022/06/21 04:57:45;;;;;;;8.23;3.58;;;;;;;;;;6166950;23;20494;-65
2022/06/21 05:00:13;;;;;;;7.22;3.00;;;;;;;;;;6202097;23;20031;-65
2022/06/21 05:02:41;;;;;;;13.40;3.85;;;;;;;;;;6192179;23;20028;-65
2022/06/21 05:05:12;;;;;;;9.90;3.50;;;;;;;;;;6196291;23;20106;-65
2022/06/21 05:07:44;;;;;;;10.30;4.03;;;;;;;;;;6198797;23;20020;-65
2022/06/21 05:10:15;;;;;;;7.93;3.33;;;;;;;;;;6194399;22;20024;-64
2022/06/21 05:12:42;;;;;;;10.32;3.63;;;;;;;;;;6203842;23;20425;-64
2022/06/21 05:15:41;;;;;;;11.23;4.88;;;;;;;;;;6195024;22;20099;-64
2022/06/21 05:18:10;;;;;;;6.75;3.17;;;;;;;;;;6147063;23;20035;-65
2022/06/21 05:20:40;;;;;;;15.27;3.50;;;;;;;;;;6187865;23;20032;-64
2022/06/21 05:23:07;;;;;;;9.50;3.00;;;;;;;;;;6201898;23;20060;-65
2022/06/21 05:25:39;;;;;;;8.65;3.33;;;;;;;;;;6197062;23;20112;-64
2022/06/21 05:28:05;;;;;;;13.27;3.75;;;;;;;;;;6202279;23;20099;-64
2022/06/21 05:30:39;;;;;;;9.60;4.00;;;;;;;;;;6202354;23;20027;-64
2022/06/21 05:33:10;;;;;;;8.68;4.40;;;;;;;;;;6185350;23;20027;-64
2022/06/21 05:35:37;;;;;;;12.23;5.18;;;;;;;;;;6198016;23;20103;-66
2022/06/21 05:38:09;;;;;;;12.32;4.30;;;;;;;;;;6191734;23;20028;-64
2022/06/21 05:40:38;;;;;;;10.43;3.17;;;;;;;;;;6203095;23;20056;-65
2022/06/21 05:43:10;;;;;;;13.63;4.68;;;;;;;;;;6200904;23;20024;-65
2022/06/21 05:45:36;;;;;;;9.25;3.17;;;;;;;;;;6196096;23;20322;-65
2022/06/21 05:48:06;;;;;;;8.45;3.28;;;;;;;;;;6195941;23;20480;-65
2022/06/21 05:50:34;;;;;;;9.43;3.17;;;;;;;;;;6192329;22;20366;-65
2022/06/21 05:53:07;;;;;;;9.98;3.38;;;;;;;;;;6203782;23;20035;-64
2022/06/21 05:55:36;;;;;;;11.20;3.42;;;;;;;;;;6192153;23;20025;-64
2022/06/21 05:58:02;;;;;;;;;;;;;;;;;;6202165;23;20108;-64
2022/06/21 06:00:36;;;;;;;13.80;3.53;;;;;;;;;;6196647;23;20010;-63
2022/06/21 06:03:06;;;;;;;10.48;3.10;;;;;;;;;;6193821;23;20048;-64
2022/06/21 06:05:35;;;;;;;8.32;3.63;;;;;;;;;;6202552;23;20048;-64
2022/06/21 06:08:01;;;;;;;;;;;;;;;;;;6193089;22;20031;-65
2022/06/21 06:10:28;;;;;;;6.32;3.40;;;;;;;;;;6202184;23;19942;-64
2022/06/21 06:12:56;;;;;;;10.48;3.03;;;;;;;;;;6193649;23;20027;-64
2022/06/21 06:15:22;;;;;;;;;;;;;;;;;;6193960;23;20099;-64
2022/06/21 06:18:02;;;;;;;6.57;2.53;;;;;;;;;;6201281;23;19951;-65
2022/06/21 06:20:45;;;;;;;7.60;2.80;;;;;;;;;;6191229;22;20059;-65
2022/06/21 06:23:30;;;;;;;6.10;2.25;;;;;;;;;;6202073;23;20108;-64
2022/06/21 06:25:59;;;;;;;7.20;2.65;;;;;;;;;;6191272;23;20035;-65
2022/06/21 06:28:35;;;;;;;7.32;2.78;;;;;;;;;;6197558;23;20710;-65
2022/06/21 06:31:01;;;;;;;8.57;3.17;;;;;;;;;;6188987;22;20176;-64
2022/06/21 06:33:33;;;;;;;6.32;2.47;;;;;;;;;;6200857;23;20025;-64
2022/06/21 06:36:09;;;;;;;7.93;2.60;;;;;;;;;;6191058;23;20036;-64
2022/06/21 06:38:36;;;;;;;8.57;3.00;;;;;;;;;;6200905;23;20131;-65
2022/06/21 06:41:12;;;;;;;9.55;2.38;;;;;;;;;;6198074;23;20021;-65
2022/06/21 06:43:41;;;;;;;7.68;2.25;;;;;;;;;;6184419;23;20132;-64
2022/06/21 06:46:10;;;;;;;7.88;2.38;;;;;;;;;;6200219;23;20369;-65
2022/06/21 06:48:39;;;;;;;9.55;2.38;;;;;;;;;;6190466;23;20107;-65
2022/06/21 06:51:26;;;;;;;7.13;2.03;;;;;;;;;;6202336;23;20044;-64
2022/06/21 06:53:54;;;;;;;8.00;2.63;;;;;;;;;;6193627;23;20025;-66
2022/06/21 06:56:30;;;;;;;12.15;2.47;;;;;;;;;;6194180;23;20108;-67
2022/06/21 06:59:02;;;;;;;5.82;2.40;;;;;;;;;;6196299;23;20017;-66
2022/06/21 07:01:50;;;;;;;8.63;2.42;;;;;;;;;;6201530;23;20021;-66
2022/06/21 07:04:17;;;;;;;8.98;2.70;;;;;;;;;;6201490;23;20021;-66
2022/06/21 07:06:45;;;;;;;9.00;3.45;;;;;;;;;;6192278;23;20304;-66
2022/06/21 07:09:23;;;;;;;4.78;2.42;;;;;;;;;;6197675;23;20031;-66
2022/06/21 07:11:53;;;;;;;7.57;2.00;;;;;;;;;;6185489;23;20021;-66
2022/06/21 07:14:23;;;;;;;6.53;2.28;;;;;;;;;;6201634;23;20103;-66
2022/06/21 07:16:52;;;;;;;6.78;2.30;;;;;;;;;;6191519;23;20286;-66
2022/06/21 07:19:19;;;;;;;4.93;1.92;;;;;;;;;;6200706;23;20021;-66
2022/06/21 07:21:45;;;;;;;5.15;1.85;;;;;;;;;;6202176;23;20020;-66
2022/06/21 07:24:16;;;;;;;10.10;1.95;;;;;;;;;;6185524;23;20020;-66
2022/06/21 07:26:48;;;;;;;5.80;1.98;;;;;;;;;;6199360;23;20068;-66
2022/06/21 07:29:30;;;;;;;7.00;2.05;;;;;;;;;;6190794;23;20043;-66
2022/06/21 07:31:58;;;;;;;9.48;2.60;;;;;;;;;;6175556;23;20024;-66
2022/06/21 07:34:28;;;;;;;6.13;2.03;;;;;;;;;;6191454;22;20085;-66
2022/06/21 07:36:58;;;;;;;5.53;2.30;;;;;;;;;;6195153;23;20060;-66
2022/06/21 07:39:34;;;;;;;4.55;2.10;;;;;;;;;;6186906;23;20099;-66
2022/06/21 07:42:06;;;;;;;7.05;2.50;;;;;;;;;;6201071;23;20437;-66
2022/06/21 07:44:51;;;;;;;8.55;2.58;;;;;;;;;;6202307;23;20052;-66
2022/06/21 07:47:27;;;;;;;8.38;1.60;;;;;;;;;;6195799;23;20043;-66
2022/06/21 07:49:56;;;;;;;5.22;1.85;;;;;;;;;;6197181;23;20314;-66
2022/06/21 07:52:29;;;;;;;6.88;1.70;;;;;;;;;;6185426;23;20029;-66
2022/06/21 07:55:18;;;;;;;6.40;1.70;;;;;;;;;;6202051;23;20099;-66
2022/06/21 07:57:49;;;;;;;7.35;1.42;;;;;;;;;;6192427;23;20032;-66
2022/06/21 08:00:17;;;;;;;2.85;0.93;;;;;;;;;;6203784;23;20031;-66
2022/06/21 08:08:22;;;;;;;6.13;1.37;;;;;;;;;;6196539;23;20055;-66
2022/06/21 08:11:11;;;;;;;7.05;1.40;;;;;;;;;;6202571;23;20273;-66
2022/06/21 08:13:38;;;;;;;8.27;1.95;;;;;;;;;;6203666;23;20099;-66
2022/06/21 08:16:05;;;;;;;8.63;1.63;;;;;;;;;;6192654;23;20517;-66
2022/06/21 08:18:36;;;;;;;4.78;1.20;;;;;;;;;;6198235;23;20027;-67
2022/06/21 08:21:05;;;;;;;6.00;1.75;;;;;;;;;;6187616;22;20052;-65
2022/06/21 08:23:34;;;;;;;3.60;1.45;;;;;;;;;;6204322;23;20063;-65
2022/06/21 08:26:06;;;;;;;4.82;1.60;;;;;;;;;;6192992;22;20115;-65
2022/06/21 08:28:36;;;;;;;3.35;1.10;;;;;;;;;;6203998;23;20025;-66
2022/06/21 08:31:08;;;;;;;3.25;1.23;;;;;;;;;;6203587;23;20092;-66
2022/06/21 08:33:43;;;;;;;4.20;1.20;;;;;;;;;;6182655;22;20036;-68
2022/06/21 08:36:22;;;;;;;3.38;1.30;;;;;;;;;;6201774;23;20051;-66
2022/06/21 08:39:01;;;;;;;4.80;1.58;;;;;;;;;;6191908;23;20111;-67
2022/06/21 08:41:52;;;;;;;5.65;1.50;;;;;;;;;;6203173;23;20047;-66
2022/06/21 08:44:36;;;;;;;2.83;1.25;;;;;;;;;;6192718;23;20035;-66
2022/06/21 08:47:15;;;;;;;9.45;1.48;;;;;;;;;;6195481;23;20139;-66
2022/06/21 08:50:18;;;;;;;5.07;1.27;;;;;;;;;;6193275;23;20410;-65
2022/06/21 08:53:04;;;;;;;11.88;1.30;;;;;;;;;;6203533;23;20028;-66
2022/06/21 08:55:49;;;;;;;5.82;1.73;;;;;;;;;;6191660;22;20098;-66
2022/06/21 08:58:34;;;;;;;2.78;0.90;;;;;;;;;;6203097;23;20361;-65
2022/06/21 09:01:20;;;;;;;7.80;1.13;;;;;;;;;;6186010;23;20624;-66
2022/06/21 09:03:58;;;;;;;2.85;0.80;;;;;;;;;;6202009;23;20539;-66
2022/06/21 09:06:34;;;;;;;5.55;0.80;;;;;;;;;;6199401;23;20248;-65
2022/06/21 09:09:04;;;;;;;2.35;0.90;;;;;;;;;;6201952;23;20310;-65
2022/06/21 09:11:51;;;;;;;3.22;0.90;;;;;;;;;;6203101;23;20039;-66
2022/06/21 09:14:26;;;;;;;3.20;1.00;;;;;;;;;;6187097;23;20059;-66
2022/06/21 09:16:59;;;;;;;2.42;0.85;;;;;;;;;;6197540;23;20107;-66
2022/06/21 09:19:34;;;;;;;2.47;0.90;;;;;;;;;;6193285;23;20540;-65
2022/06/21 09:22:21;;;;;;;3.92;1.02;;;;;;;;;;6203751;23;20058;-66
2022/06/21 09:24:58;;;;;;;3.70;1.10;;;;;;;;;;6192534;23;20032;-66
2022/06/21 09:27:31;;;;;;;3.97;1.05;;;;;;;;;;6197989;23;20497;-66
2022/06/21 09:30:18;;;;;;;5.80;1.30;;;;;;;;;;6189053;22;20025;-66
2022/06/21 09:32:49;;;;;;;3.63;1.05;;;;;;;;;;6202395;23;20357;-66
2022/06/21 09:35:18;;;;;;;2.47;1.02;;;;;;;;;;6197175;23;20477;-65
2022/06/21 09:37:57;;;;;;;4.82;1.00;;;;;;;;;;6201422;23;20108;-67
2022/06/21 09:40:24;;;;;;;8.95;1.25;;;;;;;;;;6202927;23;20026;-66
2022/06/21 09:43:18;;;;;;;3.75;1.10;;;;;;;;;;6182664;23;20079;-66
2022/06/21 09:45:48;;;;;;;4.65;0.95;;;;;;;;;;6201495;23;20074;-66
2022/06/21 09:48:14;;;;;;;2.85;1.08;;;;;;;;;;6191414;22;20107;-66
2022/06/21 09:50:40;;;;;;;4.32;1.25;;;;;;;;;;6203519;23;20059;-66
2022/06/21 09:53:22;;;;;;;5.32;1.58;;;;;;;;;;6192702;22;20027;-66
2022/06/21 09:55:56;;;;;;;3.55;1.15;;;;;;;;;;6197827;23;20124;-66
2022/06/21 09:58:34;;;;;;;4.47;1.30;;;;;;;;;;6196646;23;20111;-67
2022/06/21 10:01:06;;;;;;;5.20;1.30;;;;;;;;;;6200811;23;20103;-66
2022/06/21 10:03:46;;;;;;;5.03;1.65;;;;;;;;;;6202765;23;20028;-66
2022/06/21 10:06:34;;;;;;;11.13;1.60;;;;;;;;;;6191171;23;20031;-66
2022/06/21 10:09:14;;;;;;;3.58;1.27;;;;;;;;;;6197850;23;20067;-66
2022/06/21 10:11:46;;;;;;;3.83;1.30;;;;;;;;;;6186383;23;20408;-67
2022/06/21 10:14:15;;;;;;;4.18;1.27;;;;;;;;;;6201362;23;20096;-66
2022/06/21 10:17:02;;;;;;;4.22;1.50;;;;;;;;;;6191426;23;20024;-66
2022/06/21 10:19:28;;;;;;;6.47;1.48;;;;;;;;;;6154972;23;20084;-66
2022/06/21 10:22:13;;;;;;;4.68;1.63;;;;;;;;;;6193539;23;20421;-65
2022/06/21 10:24:58;;;;;;;4.15;1.40;;;;;;;;;;6194936;23;20633;-66
2022/06/21 10:27:34;;;;;;;6.40;1.60;;;;;;;;;;6174035;23;20035;-67
2022/06/21 10:30:08;;;;;;;3.58;1.15;;;;;;;;;;6196845;23;20063;-66
2022/06/21 10:32:46;;;;;;;3.80;1.40;;;;;;;;;;6202430;23;20099;-66
2022/06/21 10:35:32;;;;;;;3.90;1.20;;;;;;;;;;6191388;23;20052;-66
2022/06/21 10:38:02;;;;;;;1.65;0.93;;;;;;;;;;6195500;23;20314;-66
2022/06/21 10:40:47;;;;;;;3.25;1.25;;;;;;;;;;6186022;23;20021;-66
2022/06/21 10:43:25;;;;;;;2.60;1.05;;;;;;;;;;6202027;23;20108;-67
2022/06/21 10:45:59;;;;;;;5.47;1.20;;;;;;;;;;6191716;23;20024;-66
2022/06/21 10:48:37;;;;;;;2.97;0.80;;;;;;;;;;6202641;23;20032;-66
2022/06/21 10:51:11;;;;;;;3.08;0.95;;;;;;;;;;6189184;23;20309;-66
2022/06/21 10:54:01;;;;;;;2.05;0.95;;;;;;;;;;6197643;23;20350;-66
2022/06/21 10:59:16;;;;;;;3.90;1.20;;;;;;;;;;6200608;23;20107;-65
2022/06/21 11:01:45;;;;;;;2.65;1.20;;;;;;;;;;6175576;23;20024;-66
2022/06/21 11:04:11;;;;;;;2.85;0.98;;;;;;;;;;6186294;23;20060;-66
2022/06/21 11:06:38;;;;;;;8.20;1.10;;;;;;;;;;6196068;23;20103;-66
2022/06/21 11:09:13;;;;;;;6.85;1.08;;;;;;;;;;6191412;22;20128;-66
2022/06/21 11:11:40;;;;;;;3.88;0.98;;;;;;;;;;6202396;23;20491;-66
2022/06/21 11:14:12;;;;;;;3.47;0.93;;;;;;;;;;6192545;23;20372;-66
2022/06/21 11:16:38;;;;;;;2.63;1.08;;;;;;;;;;6200589;23;20020;-66
2022/06/21 11:19:19;;;;;;;1.88;1.02;;;;;;;;;;6196576;23;20359;-66
2022/06/21 11:22:06;;;;;;;3.28;1.08;;;;;;;;;;6186979;23;20103;-66
2022/06/21 11:24:51;;;;;;;3.50;1.20;;;;;;;;;;6201608;23;20027;-66
2022/06/21 11:27:33;;;;;;;2.25;0.82;;;;;;;;;;6191535;22;20021;-67
2022/06/21 11:30:04;;;;;;;3.65;1.10;;;;;;;;;;6200405;23;20135;-67
2022/06/21 11:32:39;;;;;;;4.28;0.95;;;;;;;;;;6186680;22;20062;-66
2022/06/21 11:35:07;;;;;;;3.47;1.10;;;;;;;;;;6198194;23;20103;-66
2022/06/21 11:37:39;;;;;;;3.35;1.10;;;;;;;;;;6192865;23;20052;-66
2022/06/21 11:40:24;;;;;;;2.22;0.70;;;;;;;;;;6204419;23;20100;-66
2022/06/21 11:42:51;;;;;;;4.75;1.15;;;;;;;;;;6196827;22;20027;-65
2022/06/21 11:45:36;;;;;;;5.13;0.88;;;;;;;;;;6201691;23;20634;-66
2022/06/21 11:48:12;;;;;;;3.45;1.10;;;;;;;;;;6194902;23;20021;-65
2022/06/21 11:50:54;;;;;;;4.05;1.05;;;;;;;;;;6193476;23;20086;-66
2022/06/21 11:53:20;;;;;;;4.05;1.00;;;;;;;;;;6203260;23;20021;-65
2022/06/21 11:55:53;;;;;;;3.40;1.10;;;;;;;;;;6193558;22;20492;-66
2022/06/21 11:58:26;;;;;;;2.35;0.90;;;;;;;;;;6203093;23;20028;-66
2022/06/21 12:01:00;;;;;;;2.35;1.00;;;;;;;;;;6188306;22;20067;-66
2022/06/21 12:03:37;;;;;;;4.07;1.08;;;;;;;;;;6197955;23;20202;-65
2022/06/21 12:06:13;;;;;;;2.65;0.88;;;;;;;;;;6198965;22;20583;-65
2022/06/21 12:09:22;;;;;;;3.53;0.80;;;;;;;;;;6202377;23;20029;-66
2022/06/21 12:11:57;;;;;;;3.03;0.95;;;;;;;;;;6160436;23;20047;-66
2022/06/21 12:14:42;;;;;;;4.25;0.90;;;;;;;;;;6196768;23;20199;-67
2022/06/21 12:17:22;;;;;;;2.08;0.75;;;;;;;;;;6198268;23;20029;-66
2022/06/21 12:19:51;;;;;;;3.45;0.75;;;;;;;;;;6193008;23;20028;-67
2022/06/21 12:22:28;;;;;;;3.20;0.90;;;;;;;;;;6202791;23;20450;-66
2022/06/21 12:24:55;;;;;;;2.20;0.75;;;;;;;;;;6196150;23;20136;-67
2022/06/21 12:27:22;;;;;;;1.90;0.85;;;;;;;;;;6200420;23;20244;-67
2022/06/21 12:29:48;;;;;;;4.28;0.88;;;;;;;;;;6184454;23;20031;-67
2022/06/21 12:32:19;;;;;;;3.13;0.75;;;;;;;;;;6202235;23;20539;-66
2022/06/21 12:34:55;;;;;;;3.67;0.80;;;;;;;;;;6203499;23;20111;-67
2022/06/21 12:37:25;;;;;;;2.03;0.90;;;;;;;;;;6191791;23;20051;-67
2022/06/21 12:39:57;;;;;;;3.60;0.75;;;;;;;;;;6203068;23;20119;-67
2022/06/21 12:42:43;;;;;;;2.22;0.82;;;;;;;;;;6187574;23;20496;-66
2022/06/21 12:45:16;;;;;;;4.18;0.90;;;;;;;;;;6197055;23;20025;-65
2022/06/21 12:48:04;;;;;;;2.13;0.70;;;;;;;;;;6193195;23;20100;-66
2022/06/21 12:50:30;;;;;;;4.78;0.80;;;;;;;;;;6203725;23;20059;-66
2022/06/21 12:52:59;;;;;;;1.98;0.70;;;;;;;;;;6195040;22;20031;-65
2022/06/21 12:55:50;;;;;;;2.17;0.90;;;;;;;;;;6199256;23;20402;-66
2022/06/21 12:58:27;;;;;;;3.83;1.17;;;;;;;;;;6185993;23;20128;-65
2022/06/21 13:00:55;;;;;;;3.30;0.80;;;;;;;;;;6202640;23;20020;-65
2022/06/21 13:03:37;;;;;;;3.28;0.70;;;;;;;;;;6203324;23;20027;-65
2022/06/21 13:06:22;;;;;;;4.32;1.00;;;;;;;;;;6192728;22;20470;-66
2022/06/21 13:08:55;;;;;;;2.28;0.90;;;;;;;;;;6203322;23;20108;-67
2022/06/21 13:11:40;;;;;;;2.08;0.88;;;;;;;;;;6181333;23;20099;-66
2022/06/21 13:14:12;;;;;;;2.13;0.85;;;;;;;;;;6201772;23;20025;-65
2022/06/21 13:16:57;;;;;;;4.18;0.85;;;;;;;;;;6166451;23;20040;-66
2022/06/21 13:19:30;;;;;;;2.20;0.85;;;;;;;;;;6202267;23;20020;-66
2022/06/21 13:22:03;;;;;;;2.28;0.70;;;;;;;;;;6192071;22;20518;-66
2022/06/21 13:24:30;;;;;;;3.05;1.00;;;;;;;;;;6196268;23;20020;-66
2022/06/21 13:27:05;;;;;;;2.33;1.13;;;;;;;;;;6197413;23;20027;-66
2022/06/21 13:29:53;;;;;;;2.28;0.80;;;;;;;;;;6199876;23;20675;-65
2022/06/21 13:32:22;;;;;;;2.08;0.80;;;;;;;;;;6202011;23;20031;-66
2022/06/21 13:34:51;;;;;;;4.07;0.90;;;;;;;;;;6192681;23;20448;-66
2022/06/21 13:37:23;;;;;;;2.42;0.80;;;;;;;;;;6196957;23;20039;-66
2022/06/21 13:40:08;;;;;;;4.97;0.90;;;;;;;;;;6184910;23;20171;-66
2022/06/21 13:42:44;;;;;;;1.98;0.77;;;;;;;;;;6201880;23;20025;-66
2022/06/21 13:45:16;;;;;;;2.53;0.90;;;;;;;;;;6192324;23;20067;-66
2022/06/21 13:47:43;;;;;;;2.53;0.80;;;;;;;;;;6202803;23;20024;-66
2022/06/21 13:50:09;;;;;;;8.13;1.42;;;;;;;;;;6201627;23;20021;-67
2022/06/21 13:52:52;;;;;;;3.55;1.00;;;;;;;;;;6187050;23;20066;-66
2022/06/21 13:55:43;;;;;;;2.90;0.95;;;;;;;;;;6197332;23;20550;-66
2022/06/21 13:58:13;;;;;;;4.05;0.98;;;;;;;;;;6191037;23;20108;-65
2022/06/21 14:00:58;;;;;;;6.38;1.10;;;;;;;;;;6202537;23;20413;-66
2022/06/21 14:03:34;;;;;;;3.80;1.00;;;;;;;;;;6191660;23;20020;-66
2022/06/21 14:06:00;;;;;;;2.70;0.82;;;;;;;;;;6197556;23;20103;-67
2022/06/21 14:08:26;;;;;;;3.10;0.90;;;;;;;;;;6185991;23;20135;-66
2022/06/21 14:10:57;;;;;;;3.92;0.90;;;;;;;;;;6202338;23;20027;-66
2022/06/21 14:13:30;;;;;;;3.00;0.90;;;;;;;;;;6199824;23;20027;-66
2022/06/21 14:16:02;;;;;;;3.13;0.90;;;;;;;;;;6201453;23;20028;-66
2022/06/21 14:18:29;;;;;;;3.70;0.93;;;;;;;;;;6203161;23;20048;-66
2022/06/21 14:21:04;;;;;;;3.97;1.00;;;;;;;;;;6187054;22;20320;-66
2022/06/21 14:23:30;;;;;;;4.57;1.10;;;;;;;;;;6202248;23;20339;-66
2022/06/21 14:26:19;;;;;;;2.25;0.90;;;;;;;;;;6195074;23;20027;-65
2022/06/21 14:28:46;;;;;;;3.70;1.10;;;;;;;;;;6189675;23;20357;-65
2022/06/21 14:31:21;;;;;;;1.73;0.85;;;;;;;;;;6191894;23;20697;-65
2022/06/21 14:34:06;;;;;;;3.97;1.23;;;;;;;;;;6192950;23;20186;-66
2022/06/21 14:36:39;;;;;;;2.95;1.13;;;;;;;;;;6196588;23;20028;-67
2022/06/21 14:39:10;;;;;;;5.18;1.13;;;;;;;;;;6201504;23;20059;-66
2022/06/21 14:41:42;;;;;;;4.95;1.30;;;;;;;;;;6202343;23;20115;-66
2022/06/21 14:44:21;;;;;;;2.13;0.95;;;;;;;;;;6191618;22;20076;-66
2022/06/21 14:46:52;;;;;;;4.45;1.10;;;;;;;;;;6196139;23;20119;-66
2022/06/21 14:49:18;;;;;;;4.70;1.30;;;;;;;;;;6185163;23;20048;-66
2022/06/21 14:51:53;;;;;;;3.03;1.10;;;;;;;;;;6202072;23;20025;-66
2022/06/21 14:54:28;;;;;;;5.07;0.88;;;;;;;;;;6195091;23;20603;-65
2022/06/21 14:57:13;;;;;;;13.88;1.38;;;;;;;;;;6200429;23;20027;-66
2022/06/21 14:59:40;;;;;;;5.25;1.08;;;;;;;;;;6199201;23;20024;-65
2022/06/21 15:02:32;;;;;;;3.92;1.00;;;;;;;;;;6190348;23;20021;-66
2022/06/21 15:05:02;;;;;;;4.68;1.20;;;;;;;;;;6201537;23;20044;-66
2022/06/21 15:08:05;;;;;;;3.97;1.13;;;;;;;;;;6191088;22;20284;-66
2022/06/21 15:10:32;;;;;;;3.65;1.10;;;;;;;;;;6108953;23;20097;-66
2022/06/21 15:13:05;;;;;;;2.75;0.73;;;;;;;;;;6173372;23;20103;-66
2022/06/21 15:15:34;;;;;;;3.92;1.00;;;;;;;;;;6192173;23;20086;-67
2022/06/21 15:18:21;;;;;;;2.92;0.73;;;;;;;;;;6188416;23;20107;-68
2022/06/21 15:21:10;;;;;;;3.83;1.08;;;;;;;;;;6202262;23;20749;-66
2022/06/21 15:23:46;;;;;;;5.15;1.13;;;;;;;;;;6195694;22;20103;-67
2022/06/21 15:26:15;;;;;;;3.83;1.30;;;;;;;;;;6201363;23;20116;-67
2022/06/21 15:28:44;;;;;;;2.47;0.90;;;;;;;;;;6189008;23;20103;-67
2022/06/21 15:31:17;;;;;;;2.70;0.90;;;;;;;;;;6194363;23;20397;-65